sensor_id;sensor_type;location;lat;lon;timestamp;pressure;altitude;pressure_sealevel;temperature;humidity
77279;BME280;66332;50.436;15.378;2023-01-30T05:00:08;98064.88;;;-2.91;78.89
77279;BME280;66332;50.436;15.378;2023-01-30T05:04:50;98074.41;;;-2.53;77.82
77279;BME280;66332;50.436;15.378;2023-01-30T05:09:31;98055.88;;;-2.58;76.96
77279;BME280;66332;50.436;15.378;2023-01-30T05:14:12;98073.28;;;-2.62;77.30
77279;BME280;66332;50.436;15.378;2023-01-30T05:18:53;98079.75;;;-2.56;77.89
77279;BME280;66332;50.436;15.378;2023-01-30T05:23:33;98066.94;;;-2.83;79.67
77279;BME280;66332;50.436;15.378;2023-01-30T05:28:15;98073.78;;;-2.69;78.88
77279;BME280;66332;50.436;15.378;2023-01-30T05:32:57;98045.75;;;-2.87;78.89
77279;BME280;66332;50.436;15.378;2023-01-30T05:37:38;98035.88;;;-2.80;79.78
77279;BME280;66332;50.436;15.378;2023-01-30T05:42:19;98040.13;;;-2.66;77.74
77279;BME280;66332;50.436;15.378;2023-01-30T05:47:00;98020.16;;;-2.63;78.12
77279;BME280;66332;50.436;15.378;2023-01-30T05:51:40;98015.53;;;-2.58;78.89
77279;BME280;66332;50.436;15.378;2023-01-30T05:56:22;98002.63;;;-2.32;77.90
77279;BME280;66332;50.436;15.378;2023-01-30T06:01:06;97987.81;;;-2.28;76.91
77279;BME280;66332;50.436;15.378;2023-01-30T06:05:48;97984.09;;;-2.24;76.86
77279;BME280;66332;50.436;15.378;2023-01-30T06:10:29;97972.94;;;-1.99;75.84
77279;BME280;66332;50.436;15.378;2023-01-30T06:15:10;97966.47;;;-2.18;76.89
77279;BME280;66332;50.436;15.378;2023-01-30T06:19:51;97955.19;;;-2.04;76.37
77279;BME280;66332;50.436;15.378;2023-01-30T06:24:32;97976.44;;;-2.13;77.48
77279;BME280;66332;50.436;15.378;2023-01-30T06:29:12;97953.47;;;-2.16;78.20
77279;BME280;66332;50.436;15.378;2023-01-30T06:33:53;97948.97;;;-2.13;77.16
77279;BME280;66332;50.436;15.378;2023-01-30T06:38:34;97942.19;;;-1.90;76.66
77279;BME280;66332;50.436;15.378;2023-01-30T06:43:15;97932.56;;;-2.12;77.95
77279;BME280;66332;50.436;15.378;2023-01-30T06:47:57;97917.28;;;-2.02;76.91
77279;BME280;66332;50.436;15.378;2023-01-30T06:52:41;97921.63;;;-1.78;76.99
77279;BME280;66332;50.436;15.378;2023-01-30T06:57:22;97912.13;;;-2.02;77.33
77279;BME280;66332;50.436;15.378;2023-01-30T07:02:03;97918.41;;;-1.69;77.19
77279;BME280;66332;50.436;15.378;2023-01-30T07:06:44;97926.66;;;-2.01;79.21
77279;BME280;66332;50.436;15.378;2023-01-30T07:11:27;97934.81;;;-2.07;79.88
77279;BME280;66332;50.436;15.378;2023-01-30T07:16:07;97918.50;;;-2.19;80.94
77279;BME280;66332;50.436;15.378;2023-01-30T07:20:49;97909.47;;;-2.00;80.61
77279;BME280;66332;50.436;15.378;2023-01-30T07:25:30;97899.63;;;-1.95;80.38
77279;BME280;66332;50.436;15.378;2023-01-30T07:30:11;97898.66;;;-1.81;79.79
77279;BME280;66332;50.436;15.378;2023-01-30T07:34:52;97890.59;;;-1.77;79.92
77279;BME280;66332;50.436;15.378;2023-01-30T07:39:33;97896.19;;;-1.83;81.10
77279;BME280;66332;50.436;15.378;2023-01-30T07:44:15;97893.44;;;-1.69;82.79
77279;BME280;66332;50.436;15.378;2023-01-30T07:48:55;97885.13;;;-1.72;82.95
77279;BME280;66332;50.436;15.378;2023-01-30T07:53:36;97879.84;;;-1.71;84.13
77279;BME280;66332;50.436;15.378;2023-01-30T07:58:17;97885.41;;;-1.53;84.00
77279;BME280;66332;50.436;15.378;2023-01-30T08:02:58;97870.06;;;-1.08;82.89
77279;BME280;66332;50.436;15.378;2023-01-30T08:07:39;97866.88;;;-1.11;83.25
77279;BME280;66332;50.436;15.378;2023-01-30T08:12:20;97857.97;;;-1.07;83.08
77279;BME280;66332;50.436;15.378;2023-01-30T08:17:01;97848.50;;;-0.96;82.56
77279;BME280;66332;50.436;15.378;2023-01-30T08:21:41;97844.97;;;-0.83;81.96
77279;BME280;66332;50.436;15.378;2023-01-30T08:26:22;97849.91;;;-0.80;82.22
77279;BME280;66332;50.436;15.378;2023-01-30T08:31:11;97852.47;;;-0.69;82.76
77279;BME280;66332;50.436;15.378;2023-01-30T08:35:54;97842.25;;;-0.71;83.05
77279;BME280;66332;50.436;15.378;2023-01-30T08:40:36;97826.09;;;-0.73;84.05
77279;BME280;66332;50.436;15.378;2023-01-30T08:45:17;97820.69;;;-0.81;85.51
77279;BME280;66332;50.436;15.378;2023-01-30T08:49:57;97811.19;;;-0.92;86.17
77279;BME280;66332;50.436;15.378;2023-01-30T08:54:38;97816.09;;;-0.88;87.38
77279;BME280;66332;50.436;15.378;2023-01-30T08:59:19;97790.78;;;-0.95;87.07
77279;BME280;66332;50.436;15.378;2023-01-30T09:04:00;97759.59;;;-1.03;87.80
77279;BME280;66332;50.436;15.378;2023-01-30T09:08:41;97796.84;;;-0.73;88.07
77279;BME280;66332;50.436;15.378;2023-01-30T09:13:22;97774.56;;;-0.85;87.91
77279;BME280;66332;50.436;15.378;2023-01-30T09:18:03;97789.00;;;-0.72;88.13
77279;BME280;66332;50.436;15.378;2023-01-30T09:22:45;97781.94;;;-0.58;87.60
77279;BME280;66332;50.436;15.378;2023-01-30T09:27:25;97786.63;;;-0.52;87.75
77279;BME280;66332;50.436;15.378;2023-01-30T09:32:06;97771.75;;;-0.60;87.49
77279;BME280;66332;50.436;15.378;2023-01-30T09:36:47;97776.50;;;-0.33;87.60
77279;BME280;66332;50.436;15.378;2023-01-30T09:41:52;97769.78;;;-0.24;86.61
77279;BME280;66332;50.436;15.378;2023-01-30T09:51:51;97748.38;;;-0.15;87.58
77279;BME280;66332;50.436;15.378;2023-01-30T09:56:36;97759.84;;;-0.08;87.48
77279;BME280;66332;50.436;15.378;2023-01-30T10:01:26;97736.19;;;-0.24;88.26
77279;BME280;66332;50.436;15.378;2023-01-30T10:06:13;97745.72;;;-0.04;88.26
77279;BME280;66332;50.436;15.378;2023-01-30T10:11:03;97739.72;;;-0.04;88.25
77279;BME280;66332;50.436;15.378;2023-01-30T10:30:14;97716.09;;;0.01;87.95
77279;BME280;66332;50.436;15.378;2023-01-30T10:34:58;97706.19;;;0.06;88.10
77279;BME280;66332;50.436;15.378;2023-01-30T10:39:53;97695.03;;;0.26;87.92
77279;BME280;66332;50.436;15.378;2023-01-30T10:44:37;97693.56;;;0.33;87.83
77279;BME280;66332;50.436;15.378;2023-01-30T10:54:39;97682.44;;;0.42;86.72
77279;BME280;66332;50.436;15.378;2023-01-30T11:04:32;97660.53;;;0.37;88.10
77279;BME280;66332;50.436;15.378;2023-01-30T11:09:15;97661.19;;;0.39;88.13
77279;BME280;66332;50.436;15.378;2023-01-30T11:14:09;97649.25;;;0.48;87.44
77279;BME280;66332;50.436;15.378;2023-01-30T11:18:51;97644.38;;;0.54;87.77
77279;BME280;66332;50.436;15.378;2023-01-30T11:23:40;97636.63;;;0.54;86.93
77279;BME280;66332;50.436;15.378;2023-01-30T11:28:23;97639.41;;;0.72;86.41
77279;BME280;66332;50.436;15.378;2023-01-30T11:33:16;97639.41;;;0.72;85.52
77279;BME280;66332;50.436;15.378;2023-01-30T11:45:52;97581.69;;;0.81;84.89
77279;BME280;66332;50.436;15.378;2023-01-30T11:50:41;97598.34;;;0.88;84.84
77279;BME280;66332;50.436;15.378;2023-01-30T11:55:25;97589.88;;;0.86;84.79
77279;BME280;66332;50.436;15.378;2023-01-30T12:05:38;97563.44;;;0.83;84.49
77279;BME280;66332;50.436;15.378;2023-01-30T12:25:24;97548.34;;;1.17;82.73
77279;BME280;66332;50.436;15.378;2023-01-30T12:30:25;97556.78;;;1.19;83.93
77279;BME280;66332;50.436;15.378;2023-01-30T12:35:16;97554.34;;;1.08;85.13
77279;BME280;66332;50.436;15.378;2023-01-30T12:40:22;97558.44;;;1.01;84.98
77279;BME280;66332;50.436;15.378;2023-01-30T12:55:01;97555.28;;;1.07;86.19
77279;BME280;66332;50.436;15.378;2023-01-30T13:00:12;97553.09;;;1.02;86.46
77279;BME280;66332;50.436;15.378;2023-01-30T13:05:24;97539.75;;;0.87;87.02
77279;BME280;66332;50.436;15.378;2023-01-30T13:10:36;97534.59;;;1.07;86.90
77279;BME280;66332;50.436;15.378;2023-01-30T13:15:34;97518.22;;;0.97;86.79
77279;BME280;66332;50.436;15.378;2023-01-30T13:29:58;97537.72;;;1.01;86.89
77279;BME280;66332;50.436;15.378;2023-01-30T13:34:40;97529.69;;;1.04;86.99
77279;BME280;66332;50.436;15.378;2023-01-30T13:39:42;97539.75;;;1.07;86.85
77279;BME280;66332;50.436;15.378;2023-01-30T13:44:33;97534.56;;;1.26;86.43
77279;BME280;66332;50.436;15.378;2023-01-30T13:49:41;97547.09;;;1.31;85.71
77279;BME280;66332;50.436;15.378;2023-01-30T14:09:28;97551.38;;;1.69;84.49
77279;BME280;66332;50.436;15.378;2023-01-30T14:14:25;97554.19;;;1.86;83.67
77279;BME280;66332;50.436;15.378;2023-01-30T14:19:28;97537.75;;;1.77;83.75
77279;BME280;66332;50.436;15.378;2023-01-30T14:24:21;97554.94;;;1.68;84.18
77279;BME280;66332;50.436;15.378;2023-01-30T14:29:07;97536.56;;;1.62;84.37
77279;BME280;66332;50.436;15.378;2023-01-30T14:33:49;97553.19;;;1.59;84.16
77279;BME280;66332;50.436;15.378;2023-01-30T14:38:31;97563.94;;;1.64;84.15
77279;BME280;66332;50.436;15.378;2023-01-30T14:53:23;97565.22;;;1.50;85.04
77279;BME280;66332;50.436;15.378;2023-01-30T14:58:04;97535.63;;;1.33;84.89
77279;BME280;66332;50.436;15.378;2023-01-30T15:03:01;97523.09;;;1.38;83.68
77279;BME280;66332;50.436;15.378;2023-01-30T15:18:09;97563.91;;;1.83;81.78
77279;BME280;66332;50.436;15.378;2023-01-30T15:32:44;97560.72;;;1.99;79.42
77279;BME280;66332;50.436;15.378;2023-01-30T15:37:34;97558.13;;;1.99;78.76
77279;BME280;66332;50.436;15.378;2023-01-30T15:42:15;97562.84;;;2.14;78.41
77279;BME280;66332;50.436;15.378;2023-01-30T15:47:17;97576.31;;;2.27;77.52
77279;BME280;66332;50.436;15.378;2023-01-30T15:52:03;97569.22;;;2.29;77.06
77279;BME280;66332;50.436;15.378;2023-01-30T15:56:46;97554.50;;;2.20;76.80
77279;BME280;66332;50.436;15.378;2023-01-30T16:01:30;97567.81;;;2.35;76.49
77279;BME280;66332;50.436;15.378;2023-01-30T16:06:26;97569.22;;;2.29;76.71
77279;BME280;66332;50.436;15.378;2023-01-30T16:11:30;97550.25;;;2.28;76.10
77279;BME280;66332;50.436;15.378;2023-01-30T16:16:24;97518.25;;;2.10;75.64
77279;BME280;66332;50.436;15.378;2023-01-30T16:21:32;97543.34;;;2.10;76.48
77279;BME280;66332;50.436;15.378;2023-01-30T16:26:25;97553.13;;;2.16;75.93
77279;BME280;66332;50.436;15.378;2023-01-30T16:31:08;97559.94;;;2.26;75.21
77279;BME280;66332;50.436;15.378;2023-01-30T16:35:50;97562.69;;;2.15;76.02
77279;BME280;66332;50.436;15.378;2023-01-30T16:40:48;97577.38;;;1.97;77.60
77279;BME280;66332;50.436;15.378;2023-01-30T16:50:21;97596.13;;;1.52;82.63
77279;BME280;66332;50.436;15.378;2023-01-30T16:55:05;97600.69;;;1.40;84.16
77279;BME280;66332;50.436;15.378;2023-01-30T16:59:50;97588.25;;;1.24;84.08
77279;BME280;66332;50.436;15.378;2023-01-30T17:04:32;97620.69;;;1.38;83.30
77279;BME280;66332;50.436;15.378;2023-01-30T17:09:34;97635.97;;;1.51;83.69
77279;BME280;66332;50.436;15.378;2023-01-30T17:14:24;97628.06;;;1.52;83.07
77279;BME280;66332;50.436;15.378;2023-01-30T17:19:05;97611.97;;;1.49;82.44
77279;BME280;66332;50.436;15.378;2023-01-30T17:23:52;97625.72;;;1.40;84.03
77279;BME280;66332;50.436;15.378;2023-01-30T17:28:39;97638.13;;;1.46;84.86
77279;BME280;66332;50.436;15.378;2023-01-30T17:33:21;97619.19;;;1.55;83.13
77279;BME280;66332;50.436;15.378;2023-01-30T17:38:02;97626.00;;;1.56;83.68
77279;BME280;66332;50.436;15.378;2023-01-30T17:42:43;97620.41;;;1.51;84.23
77279;BME280;66332;50.436;15.378;2023-01-30T17:47:26;97632.81;;;1.67;83.04
77279;BME280;66332;50.436;15.378;2023-01-30T17:52:14;97647.41;;;1.58;84.13
77279;BME280;66332;50.436;15.378;2023-01-30T17:57:00;97640.06;;;1.34;85.63
77279;BME280;66332;50.436;15.378;2023-01-30T18:01:42;97653.00;;;1.34;86.18
77279;BME280;66332;50.436;15.378;2023-01-30T18:06:23;97647.97;;;1.32;85.66
77279;BME280;66332;50.436;15.378;2023-01-30T18:11:07;97662.13;;;1.38;85.60
77279;BME280;66332;50.436;15.378;2023-01-30T18:15:53;97657.38;;;1.43;85.99
77279;BME280;66332;50.436;15.378;2023-01-30T18:20:37;97660.78;;;1.44;85.51
77279;BME280;66332;50.436;15.378;2023-01-30T18:25:18;97662.84;;;1.50;85.48
77279;BME280;66332;50.436;15.378;2023-01-30T18:29:59;97651.09;;;1.46;85.56
77279;BME280;66332;50.436;15.378;2023-01-30T18:34:40;97664.34;;;1.52;85.79
77279;BME280;66332;50.436;15.378;2023-01-30T18:39:21;97669.91;;;1.48;86.43
77279;BME280;66332;50.436;15.378;2023-01-30T18:44:04;97664.56;;;1.40;86.34
77279;BME280;66332;50.436;15.378;2023-01-30T18:48:46;97674.41;;;1.36;86.73
77279;BME280;66332;50.436;15.378;2023-01-30T18:53:28;97671.25;;;1.32;87.23
77279;BME280;66332;50.436;15.378;2023-01-30T18:58:09;97677.53;;;1.30;87.16
77279;BME280;66332;50.436;15.378;2023-01-30T19:02:54;97684.59;;;1.28;87.28
77279;BME280;66332;50.436;15.378;2023-01-30T19:07:35;97668.81;;;1.31;86.79
77279;BME280;66332;50.436;15.378;2023-01-30T19:12:16;97684.59;;;1.18;87.29
77279;BME280;66332;50.436;15.378;2023-01-30T19:17:15;97689.31;;;1.03;87.89
77279;BME280;66332;50.436;15.378;2023-01-30T19:21:56;97694.47;;;0.84;89.16
77279;BME280;66332;50.436;15.378;2023-01-30T19:26:38;97700.56;;;0.73;89.64
77279;BME280;66332;50.436;15.378;2023-01-30T19:31:22;97720.59;;;0.81;89.35
77279;BME280;66332;50.436;15.378;2023-01-30T19:36:13;97722.81;;;0.85;89.30
77279;BME280;66332;50.436;15.378;2023-01-30T19:40:57;97709.66;;;0.67;89.92
77279;BME280;66332;50.436;15.378;2023-01-30T19:45:42;97732.03;;;0.78;89.89
77279;BME280;66332;50.436;15.378;2023-01-30T19:50:26;97740.59;;;0.79;90.05
77279;BME280;66332;50.436;15.378;2023-01-30T19:55:12;97706.25;;;0.67;89.89
77279;BME280;66332;50.436;15.378;2023-01-30T20:00:04;97742.22;;;1.01;89.23
77279;BME280;66332;50.436;15.378;2023-01-30T20:04:45;97751.50;;;1.13;88.91
77279;BME280;66332;50.436;15.378;2023-01-30T20:09:27;97752.19;;;1.25;88.70
77279;BME280;66332;50.436;15.378;2023-01-30T20:14:09;97759.69;;;1.28;88.71
77279;BME280;66332;50.436;15.378;2023-01-30T20:19:01;97762.88;;;1.31;89.02
77279;BME280;66332;50.436;15.378;2023-01-30T20:23:42;97762.41;;;1.17;88.50
77279;BME280;66332;50.436;15.378;2023-01-30T20:28:33;97768.88;;;1.32;88.47
77279;BME280;66332;50.436;15.378;2023-01-30T20:33:15;97765.88;;;1.36;88.17
77279;BME280;66332;50.436;15.378;2023-01-30T20:37:56;97777.34;;;1.44;87.76
77279;BME280;66332;50.436;15.378;2023-01-30T20:42:37;97796.56;;;1.51;86.74
77279;BME280;66332;50.436;15.378;2023-01-30T20:47:19;97798.38;;;1.60;86.81
77279;BME280;66332;50.436;15.378;2023-01-30T20:52:00;97785.69;;;1.67;85.57
77279;BME280;66332;50.436;15.378;2023-01-30T20:56:46;97786.28;;;1.80;85.27
77279;BME280;66332;50.436;15.378;2023-01-30T21:01:29;97808.50;;;1.82;84.65
77279;BME280;66332;50.436;15.378;2023-01-30T21:06:16;97803.44;;;1.81;84.94
77279;BME280;66332;50.436;15.378;2023-01-30T21:11:06;97807.00;;;1.80;83.74
77279;BME280;66332;50.436;15.378;2023-01-30T21:15:48;97838.22;;;1.78;84.05
77279;BME280;66332;50.436;15.378;2023-01-30T21:20:38;97864.56;;;1.83;83.55
77279;BME280;66332;50.436;15.378;2023-01-30T21:25:19;97868.81;;;1.84;82.10
77279;BME280;66332;50.436;15.378;2023-01-30T21:30:08;97865.94;;;1.88;81.81
77279;BME280;66332;50.436;15.378;2023-01-30T21:34:49;97891.22;;;2.05;79.73
77279;BME280;66332;50.436;15.378;2023-01-30T21:39:30;97874.56;;;1.98;80.12
77279;BME280;66332;50.436;15.378;2023-01-30T21:44:32;97905.44;;;2.20;78.51
77279;BME280;66332;50.436;15.378;2023-01-30T21:49:15;97906.00;;;2.24;77.92
77279;BME280;66332;50.436;15.378;2023-01-30T21:53:56;97911.88;;;2.26;78.23
77279;BME280;66332;50.436;15.378;2023-01-30T21:58:39;97911.72;;;2.27;78.07
77279;BME280;66332;50.436;15.378;2023-01-30T22:03:25;97913.06;;;2.12;78.42
77279;BME280;66332;50.436;15.378;2023-01-30T22:08:06;97934.78;;;2.21;78.24
77279;BME280;66332;50.436;15.378;2023-01-30T22:12:47;97961.00;;;2.18;78.19
77279;BME280;66332;50.436;15.378;2023-01-30T22:17:28;97960.16;;;2.08;79.10
77279;BME280;66332;50.436;15.378;2023-01-30T22:22:08;97963.56;;;2.08;79.21
77279;BME280;66332;50.436;15.378;2023-01-30T22:26:49;97958.72;;;1.94;79.82
77279;BME280;66332;50.436;15.378;2023-01-30T22:31:33;97977.03;;;1.92;80.85
77279;BME280;66332;50.436;15.378;2023-01-30T22:36:14;97952.16;;;1.80;81.95
77279;BME280;66332;50.436;15.378;2023-01-30T22:45:40;97970.56;;;1.77;82.60
77279;BME280;66332;50.436;15.378;2023-01-30T22:50:22;97950.22;;;1.82;82.29
77279;BME280;66332;50.436;15.378;2023-01-30T23:00:09;97990.88;;;1.81;82.96
77279;BME280;66332;50.436;15.378;2023-01-30T23:04:50;97986.66;;;1.80;82.58
77279;BME280;66332;50.436;15.378;2023-01-30T23:09:31;97985.84;;;1.80;82.88
77279;BME280;66332;50.436;15.378;2023-01-30T23:14:14;97976.56;;;1.77;82.94
77279;BME280;66332;50.436;15.378;2023-01-30T23:18:55;97968.38;;;1.82;81.83
77279;BME280;66332;50.436;15.378;2023-01-30T23:23:36;97984.66;;;1.94;82.14
77279;BME280;66332;50.436;15.378;2023-01-30T23:28:17;97995.19;;;1.92;81.60
77279;BME280;66332;50.436;15.378;2023-01-30T23:32:58;97993.25;;;1.94;81.09
77279;BME280;66332;50.436;15.378;2023-01-30T23:37:39;97979.22;;;1.97;80.08
77279;BME280;66332;50.436;15.378;2023-01-30T23:42:38;97985.28;;;2.07;79.13
77279;BME280;66332;50.436;15.378;2023-01-30T23:47:19;98009.72;;;2.14;80.38
77279;BME280;66332;50.436;15.378;2023-01-30T23:52:00;98009.88;;;1.61;84.33
77279;BME280;66332;50.436;15.378;2023-01-30T23:56:42;98017.75;;;1.50;86.24
